createdAt,value
2023-05-03T00:03:32.929Z,7.00
2023-05-03T00:07:33.151Z,6.90
2023-05-03T00:11:37.249Z,6.80
2023-05-03T00:15:37.402Z,6.90
2023-05-03T00:19:38.300Z,6.80
2023-05-03T00:23:38.513Z,6.80
2023-05-03T00:27:41.401Z,6.70
2023-05-03T00:31:41.628Z,6.60
2023-05-03T00:35:41.967Z,6.50
2023-05-03T00:39:42.250Z,6.40
2023-05-03T00:43:45.000Z,6.30
2023-05-03T00:47:45.386Z,6.20
2023-05-03T00:51:45.956Z,6.10
2023-05-03T00:55:48.438Z,6.00
2023-05-03T00:59:52.978Z,5.90
2023-05-03T01:03:53.294Z,5.90
2023-05-03T01:08:10.516Z,5.80
2023-05-03T01:12:26.878Z,5.80
2023-05-03T01:16:40.889Z,5.70
2023-05-03T01:20:45.114Z,5.60
2023-05-03T01:24:54.019Z,5.50
2023-05-03T01:28:58.637Z,5.50
2023-05-03T01:33:08.607Z,5.40
2023-05-03T01:37:14.023Z,5.40
2023-05-03T01:41:17.423Z,5.30
2023-05-03T01:45:21.243Z,5.50
2023-05-03T01:49:22.381Z,5.50
2023-05-03T01:53:23.160Z,5.40
2023-05-03T01:57:23.405Z,5.40
2023-05-03T02:01:26.349Z,5.30
2023-05-03T02:05:26.537Z,5.20
2023-05-03T02:09:28.446Z,5.10
2023-05-03T02:13:28.749Z,5.10
2023-05-03T02:17:31.673Z,5.00
2023-05-03T02:21:31.942Z,5.00
2023-05-03T02:25:32.457Z,5.00
2023-05-03T02:29:32.702Z,4.90
2023-05-03T02:33:37.574Z,4.90
2023-05-03T02:37:37.822Z,4.80
2023-05-03T02:41:42.873Z,4.80
2023-05-03T02:45:43.177Z,4.70
2023-05-03T02:49:48.383Z,4.70
2023-05-03T02:53:49.435Z,4.70
2023-05-03T02:57:49.659Z,4.50
2023-05-03T03:01:53.173Z,4.50
2023-05-03T03:05:59.071Z,4.40
2023-05-03T03:09:59.351Z,4.30
2023-05-03T03:13:59.811Z,4.30
2023-05-03T03:18:01.180Z,4.20
2023-05-03T03:22:04.413Z,4.10
2023-05-03T03:26:05.316Z,4.10
2023-05-03T03:30:08.285Z,4.00
2023-05-03T03:34:15.179Z,3.90
2023-05-03T03:38:18.272Z,3.90
2023-05-03T03:42:29.469Z,3.90
2023-05-03T03:46:31.352Z,3.80
2023-05-03T03:50:32.852Z,3.80
2023-05-03T03:54:36.124Z,3.80
2023-05-03T03:58:37.081Z,3.80
2023-05-03T04:02:41.331Z,3.80
2023-05-03T04:06:49.486Z,3.80
2023-05-03T04:10:53.372Z,3.80
2023-05-03T04:14:55.177Z,3.80
2023-05-03T04:18:55.575Z,3.80
2023-05-03T04:22:55.974Z,3.80
2023-05-03T04:27:04.675Z,3.80
2023-05-03T04:31:07.796Z,3.80
2023-05-03T04:35:13.079Z,3.90
2023-05-03T04:39:17.907Z,4.00
2023-05-03T04:43:23.450Z,4.10
2023-05-03T04:47:25.485Z,4.10
2023-05-03T04:51:28.466Z,4.20
2023-05-03T04:55:29.648Z,4.20
2023-05-03T04:59:34.840Z,4.20
2023-05-03T05:03:35.566Z,4.30
2023-05-03T05:07:41.019Z,4.40
2023-05-03T05:11:43.152Z,4.60
2023-05-03T05:15:46.542Z,4.80
2023-05-03T05:19:47.500Z,5.20
2023-05-03T05:23:49.115Z,5.70
2023-05-03T05:27:49.969Z,6.10
2023-05-03T05:31:53.284Z,6.50
2023-05-03T05:35:54.609Z,6.80
2023-05-03T05:39:56.408Z,7.00
2023-05-03T05:44:00.960Z,7.30
2023-05-03T05:48:06.159Z,7.60
2023-05-03T05:52:08.239Z,7.70
2023-05-03T05:56:09.080Z,7.90
2023-05-03T06:00:14.986Z,8.00
2023-05-03T06:04:19.633Z,8.10
2023-05-03T06:08:20.523Z,8.20
2023-05-03T06:12:21.074Z,8.40
2023-05-03T06:16:22.393Z,8.70
2023-05-03T06:20:26.531Z,8.80
2023-05-03T06:24:31.433Z,9.10
2023-05-03T06:28:31.607Z,9.40
2023-05-03T06:32:31.922Z,9.60
2023-05-03T06:36:35.741Z,9.90
2023-05-03T06:40:38.541Z,10.20
2023-05-03T06:44:38.894Z,10.30
2023-05-03T06:48:39.652Z,10.10
2023-05-03T06:52:42.774Z,9.80
2023-05-03T06:56:43.101Z,9.70
2023-05-03T07:00:43.438Z,9.50
2023-05-03T07:04:43.720Z,9.40
2023-05-03T07:08:47.164Z,9.40
2023-05-03T07:12:47.411Z,9.50
2023-05-03T07:16:47.694Z,9.50
2023-05-03T07:20:49.042Z,9.50
2023-05-03T07:24:51.934Z,9.50
2023-05-03T07:28:52.303Z,9.50
2023-05-03T07:32:52.845Z,9.60
2023-05-03T07:36:53.113Z,9.80
2023-05-03T07:40:56.069Z,9.90
2023-05-03T07:44:56.434Z,10.00
2023-05-03T07:48:56.549Z,10.40
2023-05-03T07:52:56.951Z,10.60
2023-05-03T07:56:59.800Z,10.90
2023-05-03T08:01:00.173Z,11.30
2023-05-03T08:05:00.844Z,11.80
2023-05-03T08:09:01.439Z,12.40
2023-05-03T08:13:04.173Z,13.20
2023-05-03T08:17:04.922Z,13.90
2023-05-03T08:21:05.079Z,14.10
2023-05-03T08:25:05.225Z,14.60
2023-05-03T08:29:08.497Z,14.70
2023-05-03T08:33:10.106Z,15.10
2023-05-03T08:37:10.494Z,15.80
2023-05-03T08:41:26.148Z,16.10
2023-05-03T08:45:29.341Z,15.80
2023-05-03T08:49:30.914Z,15.60
2023-05-03T08:53:32.760Z,16.00
2023-05-03T08:57:34.684Z,16.40
2023-05-03T09:01:40.259Z,17.50
2023-05-03T09:05:44.432Z,18.30
2023-05-03T09:09:47.058Z,19.70
2023-05-03T09:13:47.817Z,20.20
2023-05-03T09:18:13.577Z,20.00
2023-05-03T09:22:14.455Z,19.20
2023-05-03T09:26:30.533Z,17.90
2023-05-03T09:30:30.972Z,16.60
2023-05-03T09:34:34.961Z,16.00
2023-05-03T09:38:37.985Z,15.40
2023-05-03T09:42:39.176Z,14.90
2023-05-03T09:46:40.216Z,15.70
2023-05-03T09:50:45.785Z,17.50
2023-05-03T09:54:47.389Z,17.40
2023-05-03T09:58:47.961Z,17.20
2023-05-03T10:02:51.525Z,18.50
2023-05-03T10:07:01.080Z,20.00
2023-05-03T10:11:01.701Z,21.20
2023-05-03T10:15:07.427Z,20.80
2023-05-03T10:19:16.333Z,19.80
2023-05-03T10:23:20.978Z,18.90
2023-05-03T10:27:21.168Z,18.40
2023-05-03T10:31:50.501Z,18.90
2023-05-03T10:35:55.542Z,20.40
2023-05-03T10:39:59.631Z,20.40
2023-05-03T10:43:59.897Z,19.70
2023-05-03T10:48:23.457Z,19.90
2023-05-03T10:52:51.837Z,21.50
2023-05-03T10:56:59.925Z,23.00
2023-05-03T11:01:01.337Z,23.70
2023-05-03T11:05:09.380Z,24.20
2023-05-03T11:09:15.071Z,25.00
2023-05-03T11:13:18.481Z,26.50
2023-05-03T11:17:19.115Z,26.80
2023-05-03T11:21:21.432Z,26.70
2023-05-03T11:25:21.797Z,26.70
2023-05-03T11:29:27.475Z,27.10
2023-05-03T11:33:29.596Z,28.30
2023-05-03T11:37:30.502Z,28.00
2023-05-03T11:41:30.740Z,27.20
2023-05-03T11:45:44.409Z,27.80
2023-05-03T11:49:54.766Z,28.60
2023-05-03T11:53:55.222Z,28.20
2023-05-03T11:57:55.507Z,26.00
2023-05-03T12:01:59.815Z,24.20
2023-05-03T12:06:01.785Z,23.30
2023-05-03T12:14:06.939Z,24.40
2023-05-03T12:18:12.761Z,25.30
2023-05-03T12:22:26.355Z,25.80
2023-05-03T12:26:27.620Z,27.60
2023-05-03T12:30:29.038Z,26.90
2023-05-03T12:34:35.426Z,26.80
2023-05-03T12:38:37.794Z,27.00
2023-05-03T12:42:40.043Z,27.60
2023-05-03T12:46:45.241Z,28.10
2023-05-03T12:50:51.898Z,28.70
2023-05-03T12:54:55.680Z,28.80
2023-05-03T13:07:12.530Z,27.30
2023-05-03T13:11:14.093Z,28.00
2023-05-03T13:15:14.823Z,28.70
2023-05-03T13:19:15.329Z,28.40
2023-05-03T13:23:18.398Z,26.80
2023-05-03T13:27:19.933Z,26.70
2023-05-03T13:31:21.015Z,26.80
2023-05-03T13:35:21.583Z,26.70
2023-05-03T13:39:24.475Z,27.30
2023-05-03T13:43:24.848Z,26.80
2023-05-03T13:47:26.987Z,26.00
2023-05-03T13:51:29.691Z,25.40
2023-05-03T13:55:32.755Z,26.20
2023-05-03T13:59:33.037Z,26.90
2023-05-03T14:03:34.970Z,27.00
2023-05-03T14:07:36.517Z,26.90
2023-05-03T14:11:39.885Z,26.60
2023-05-03T14:15:43.606Z,27.00
2023-05-03T14:19:43.877Z,24.50
2023-05-03T14:23:45.147Z,24.20
2023-05-03T14:27:48.101Z,25.10
2023-05-03T14:31:48.524Z,25.80
2023-05-03T14:35:48.891Z,26.00
2023-05-03T14:39:49.106Z,27.20
2023-05-03T14:43:51.879Z,27.90
2023-05-03T14:47:52.404Z,28.80
2023-05-03T14:51:52.667Z,28.20
2023-05-03T14:55:54.651Z,27.80
2023-05-03T14:59:57.680Z,27.60
2023-05-03T15:03:58.032Z,27.20
2023-05-03T15:07:59.093Z,27.30
2023-05-03T15:11:59.751Z,27.70
2023-05-03T15:16:02.524Z,27.90
2023-05-03T15:20:03.100Z,28.60
2023-05-03T15:24:04.368Z,28.00
2023-05-03T15:28:04.895Z,27.90
2023-05-03T15:32:08.740Z,28.20
2023-05-03T15:36:12.293Z,28.20
2023-05-03T15:40:14.755Z,27.40
2023-05-03T15:44:16.371Z,27.60
2023-05-03T15:48:19.286Z,27.40
2023-05-03T15:52:19.469Z,26.90
2023-05-03T15:56:21.011Z,26.70
2023-05-03T16:00:23.149Z,26.40
2023-05-03T16:04:26.102Z,26.90
2023-05-03T16:08:26.534Z,26.50
2023-05-03T16:12:27.517Z,26.40
2023-05-03T16:16:28.435Z,25.50
2023-05-03T16:20:31.478Z,24.40
2023-05-03T16:24:31.639Z,24.90
2023-05-03T16:28:31.888Z,25.00
2023-05-03T16:32:32.190Z,24.70
2023-05-03T16:36:42.590Z,24.20
2023-05-03T16:40:43.455Z,23.50
2023-05-03T16:44:43.680Z,23.00
2023-05-03T16:48:43.871Z,22.80
2023-05-03T16:52:47.614Z,22.40
2023-05-03T16:56:48.197Z,21.70
2023-05-03T17:00:48.763Z,21.60
2023-05-03T17:04:49.141Z,21.70
2023-05-03T17:08:52.145Z,21.60
2023-05-03T17:12:52.892Z,21.40
2023-05-03T17:16:53.541Z,21.30
2023-05-03T17:20:53.789Z,21.20
2023-05-03T17:24:57.485Z,21.20
2023-05-03T17:28:57.685Z,21.00
2023-05-03T17:32:57.896Z,20.90
2023-05-03T17:36:59.365Z,20.40
2023-05-03T17:41:07.864Z,19.80
2023-05-03T17:45:10.253Z,19.60
2023-05-03T17:49:10.587Z,19.60
2023-05-03T17:53:11.958Z,19.80
2023-05-03T17:57:15.045Z,19.40
2023-05-03T18:01:16.017Z,19.00
2023-05-03T18:05:17.706Z,18.70
2023-05-03T18:09:18.589Z,18.10
2023-05-03T18:13:21.636Z,17.70
2023-05-03T18:17:22.746Z,17.40
2023-05-03T18:21:23.662Z,17.00
2023-05-03T18:25:24.112Z,16.40
2023-05-03T18:29:26.986Z,16.00
2023-05-03T18:33:27.547Z,15.60
2023-05-03T18:37:27.921Z,15.20
2023-05-03T18:41:28.113Z,14.90
2023-05-03T18:45:31.329Z,14.60
2023-05-03T18:49:31.502Z,14.30
2023-05-03T18:53:32.190Z,14.00
2023-05-03T18:57:32.477Z,13.80
2023-05-03T19:01:35.369Z,13.60
2023-05-03T19:05:36.493Z,13.30
2023-05-03T19:09:36.820Z,13.20
2023-05-03T19:13:37.054Z,13.00
2023-05-03T19:17:40.575Z,12.80
2023-05-03T19:21:42.635Z,12.60
2023-05-03T19:25:42.945Z,12.50
2023-05-03T19:29:43.220Z,12.30
2023-05-03T19:33:46.598Z,12.20
2023-05-03T19:37:46.829Z,12.00
2023-05-03T19:41:47.451Z,11.90
2023-05-03T19:45:47.821Z,11.80
2023-05-03T19:49:50.749Z,11.60
2023-05-03T19:53:51.163Z,11.50
2023-05-03T19:57:51.412Z,11.40
2023-05-03T20:01:51.898Z,11.20
2023-05-03T20:05:54.846Z,11.10
2023-05-03T20:09:55.221Z,11.00
2023-05-03T20:13:55.500Z,11.00
2023-05-03T20:17:56.981Z,10.90
2023-05-03T20:21:59.803Z,10.80
2023-05-03T20:26:01.742Z,10.70
2023-05-03T20:30:04.759Z,10.60
2023-05-03T20:34:05.340Z,10.50
2023-05-03T20:38:08.398Z,10.40
2023-05-03T20:42:08.865Z,10.30
2023-05-03T20:46:09.252Z,10.30
2023-05-03T20:50:11.943Z,10.20
2023-05-03T20:54:14.742Z,10.10
2023-05-03T20:58:16.260Z,10.00
2023-05-03T21:02:16.559Z,9.80
2023-05-03T21:06:16.826Z,9.60
2023-05-03T21:10:19.683Z,9.60
2023-05-03T21:14:20.076Z,9.60
2023-05-03T21:18:21.703Z,9.40
2023-05-03T21:22:22.877Z,9.30
2023-05-03T21:26:26.339Z,9.20
2023-05-03T21:30:26.587Z,9.00
2023-05-03T21:34:26.941Z,8.90
2023-05-03T21:38:27.302Z,8.80
2023-05-03T21:42:30.397Z,8.70
2023-05-03T21:46:30.682Z,8.60
2023-05-03T21:50:31.197Z,8.50
2023-05-03T21:54:31.845Z,8.40
2023-05-03T21:58:34.922Z,8.20
2023-05-03T22:02:35.225Z,8.20
2023-05-03T22:06:35.737Z,8.00
2023-05-03T22:10:36.672Z,7.90
2023-05-03T22:14:39.478Z,7.80
2023-05-03T22:18:42.432Z,7.80
2023-05-03T22:22:42.900Z,7.70
2023-05-03T22:26:43.083Z,7.70
2023-05-03T22:30:45.811Z,7.60
2023-05-03T22:34:46.787Z,7.50
2023-05-03T22:38:48.083Z,7.30
2023-05-03T22:42:48.483Z,7.30
2023-05-03T22:46:51.186Z,7.20
2023-05-03T22:50:51.848Z,7.20
2023-05-03T22:54:52.064Z,7.10
2023-05-03T22:58:52.296Z,7.00
2023-05-03T23:02:55.149Z,7.00
2023-05-03T23:06:56.718Z,6.90
2023-05-03T23:10:59.505Z,6.80
2023-05-03T23:14:59.881Z,6.70
2023-05-03T23:19:02.654Z,6.60
2023-05-03T23:23:02.867Z,6.50
2023-05-03T23:27:03.595Z,6.40
2023-05-03T23:31:04.613Z,6.40
2023-05-03T23:35:09.590Z,6.30
2023-05-03T23:39:09.963Z,6.30
2023-05-03T23:43:10.391Z,6.20
2023-05-03T23:47:10.769Z,6.20
2023-05-03T23:51:13.548Z,6.10
2023-05-03T23:55:14.908Z,6.00
2023-05-03T23:59:15.231Z,6.00
